Time;durP1;ratioP1;P1;durP2;ratioP2;P2;SDS_P1;SDS_P2;PMS_P1;PMS_P2;Temp;Humidity;BMP_temperature;BMP_pressure;BME280_temperature;BME280_humidity;BME280_pressure;Samples;Min_cycle;Max_cycle;Signal;HPM_P1;HPM_P2
2022/03/30 00:01:33;;;;;;;0.50;0.50;;;;;;;-4.56;68.47;97758.84;4963010;29;20074;-86
2022/03/30 00:04:00;;;;;;;0.57;0.57;;;;;;;-4.54;68.36;97759.50;4958196;29;20600;-85
2022/03/30 00:06:29;;;;;;;0.60;0.60;;;;;;;-4.56;68.05;97761.50;4957612;29;20055;-88
2022/03/30 00:08:56;;;;;;;0.80;0.80;;;;;;;-4.55;67.90;97760.50;4958226;29;20478;-87
2022/03/30 00:11:24;;;;;;;0.70;0.70;;;;;;;-4.53;68.11;97768.22;4958749;29;20065;-87
2022/03/30 00:13:51;;;;;;;0.57;0.57;;;;;;;-4.56;68.29;97753.59;4958424;29;20063;-86
2022/03/30 00:16:19;;;;;;;0.43;0.43;;;;;;;-4.52;68.36;97768.03;4958453;29;20059;-86
2022/03/30 00:18:49;;;;;;;0.55;0.55;;;;;;;-4.54;68.59;97767.41;4957595;29;20054;-87
2022/03/30 00:21:16;;;;;;;0.60;0.60;;;;;;;-4.55;68.90;97768.41;4957978;29;20051;-85
2022/03/30 00:23:44;;;;;;;0.55;0.55;;;;;;;-4.52;68.86;97768.03;4957637;29;20051;-87
2022/03/30 00:26:14;;;;;;;0.50;0.50;;;;;;;-4.47;69.06;97773.59;4958690;29;20478;-88
2022/03/30 00:28:41;;;;;;;0.57;0.57;;;;;;;-4.45;69.17;97771.59;4958509;29;20407;-87
2022/03/30 00:31:08;;;;;;;0.63;0.63;;;;;;;-4.46;69.13;97784.94;4959080;29;20510;-87
2022/03/30 00:33:36;;;;;;;0.60;0.60;;;;;;;-4.48;69.33;97774.59;4957954;28;20077;-87
2022/03/30 00:36:03;;;;;;;0.55;0.55;;;;;;;-4.45;69.70;97776.88;4957994;29;20051;-86
2022/03/30 00:38:30;;;;;;;0.50;0.50;;;;;;;-4.42;69.77;97784.41;4949642;29;20043;-87
2022/03/30 00:40:57;;;;;;;0.40;0.40;;;;;;;-4.44;69.70;97780.31;4936780;29;20071;-86
2022/03/30 00:43:25;;;;;;;0.70;0.70;;;;;;;-4.44;70.17;97780.31;4936560;29;20075;-87
2022/03/30 00:45:55;;;;;;;0.60;0.60;;;;;;;-4.47;70.76;97784.13;4937711;29;20142;-84
2022/03/30 00:48:23;;;;;;;0.52;0.52;;;;;;;-4.51;70.96;97785.47;4937615;29;20154;-88
2022/03/30 00:50:50;;;;;;;0.50;0.50;;;;;;;-4.52;71.29;97791.75;4938073;29;20490;-86
2022/03/30 00:53:17;;;;;;;0.50;0.50;;;;;;;-4.58;71.90;97787.22;4937447;29;20051;-86
2022/03/30 00:55:46;;;;;;;0.50;0.50;;;;;;;-4.61;72.30;97784.91;4937749;29;20515;-87
2022/03/30 00:58:15;;;;;;;0.50;0.50;;;;;;;-4.57;72.72;97794.09;4938322;29;20087;-88
2022/03/30 01:00:43;;;;;;;0.50;0.50;;;;;;;-4.53;72.90;97794.53;4936355;29;20059;-87
2022/03/30 01:03:10;;;;;;;0.50;0.50;;;;;;;-4.53;73.07;97798.03;4937229;29;20051;-88
2022/03/30 01:05:39;;;;;;;0.45;0.45;;;;;;;-4.48;73.25;97800.94;4937881;29;20066;-88
2022/03/30 01:08:06;;;;;;;0.50;0.50;;;;;;;-4.50;73.45;97802.94;4920506;29;20103;-88
2022/03/30 01:10:34;;;;;;;0.50;0.50;;;;;;;-4.53;73.70;97800.66;4938429;29;20542;-88
2022/03/30 01:13:02;;;;;;;0.50;0.50;;;;;;;-4.56;74.10;97811.53;4937679;29;20051;-89
2022/03/30 01:15:30;;;;;;;0.60;0.60;;;;;;;-4.62;74.34;97799.06;4936728;29;20138;-87
2022/03/30 01:17:57;;;;;;;0.60;0.60;;;;;;;-4.69;74.84;97820.00;4936888;29;20503;-87
2022/03/30 01:20:29;;;;;;;0.60;0.60;;;;;;;-4.81;75.20;97811.72;4938212;29;20475;-88
2022/03/30 01:23:01;;;;;;;;;;;;;;;-4.84;75.80;97814.69;4946735;29;20103;-86
2022/03/30 01:25:30;;;;;;;0.50;0.50;;;;;;;-4.89;75.98;97814.41;4948648;29;19976;-87
2022/03/30 01:28:01;;;;;;;0.40;0.40;;;;;;;-4.89;76.05;97809.13;4949789;29;20056;-87
2022/03/30 01:33:32;;;;;;;0.50;0.50;;;;;;;-4.88;76.35;97818.69;4916839;29;20423;-85
2022/03/30 01:35:59;;;;;;;0.70;0.70;;;;;;;-4.87;76.60;97820.31;4946781;29;20056;-88
2022/03/30 01:38:26;;;;;;;0.80;0.80;;;;;;;-4.88;76.80;97825.78;4945615;29;20079;-88
2022/03/30 01:40:54;;;;;;;0.65;0.65;;;;;;;-4.88;76.91;97821.31;4921144;29;20050;-88
2022/03/30 01:43:21;;;;;;;0.50;0.50;;;;;;;-4.88;76.88;97821.31;4936580;29;20146;-88
2022/03/30 01:45:48;;;;;;;0.50;0.50;;;;;;;-4.87;76.94;97830.84;4936399;29;20063;-88
2022/03/30 01:48:15;;;;;;;0.50;0.50;;;;;;;-4.84;77.05;97832.31;4935488;29;20095;-87
2022/03/30 01:50:43;;;;;;;0.55;0.55;;;;;;;-4.87;77.18;97830.84;4936578;29;20048;-85
2022/03/30 01:53:10;;;;;;;0.60;0.60;;;;;;;-4.95;77.13;97836.16;4935115;29;20399;-86
2022/03/30 01:55:38;;;;;;;0.65;0.65;;;;;;;-5.04;77.58;97839.84;4934936;29;20052;-86
2022/03/30 01:58:05;;;;;;;0.50;0.50;;;;;;;-5.12;77.38;97839.88;4934746;29;20118;-86
2022/03/30 02:00:33;;;;;;;0.52;0.52;;;;;;;-5.17;77.42;97842.22;4935506;29;20055;-89
2022/03/30 02:03:01;;;;;;;0.60;0.60;;;;;;;-5.21;77.41;97851.47;4937176;29;20099;-87
2022/03/30 02:05:31;;;;;;;0.50;0.50;;;;;;;-5.29;77.35;97842.63;4937030;29;20040;-86
2022/03/30 02:07:58;;;;;;;0.60;0.60;;;;;;;-5.37;77.56;97845.25;4937486;29;20139;-86
2022/03/30 02:10:25;;;;;;;0.60;0.60;;;;;;;-5.36;77.46;97840.84;4935361;29;20048;-88
2022/03/30 02:12:52;;;;;;;0.40;0.40;;;;;;;-5.31;77.53;97852.47;4936696;29;20059;-86
2022/03/30 02:15:22;;;;;;;0.55;0.55;;;;;;;-5.31;77.45;97852.47;4935506;29;20055;-87
2022/03/30 02:17:52;;;;;;;0.70;0.70;;;;;;;-5.32;77.71;97861.34;4937375;29;20130;-88
2022/03/30 02:20:19;;;;;;;0.70;0.70;;;;;;;-5.32;77.91;97852.66;4935587;29;20154;-87
2022/03/30 02:22:51;;;;;;;0.60;0.60;;;;;;;-5.29;78.10;97865.44;4937664;29;20066;-87
2022/03/30 02:25:19;;;;;;;0.50;0.50;;;;;;;-5.28;78.05;97865.28;4937784;29;20143;-87
2022/03/30 02:27:46;;;;;;;0.70;0.70;;;;;;;-5.25;78.06;97870.19;4936534;29;20052;-88
2022/03/30 02:30:14;;;;;;;0.63;0.63;;;;;;;-5.28;78.14;97870.53;4936840;29;20097;-88
2022/03/30 02:32:44;;;;;;;0.60;0.60;;;;;;;-5.29;78.18;97875.97;4936537;29;20058;-88
2022/03/30 02:35:12;;;;;;;0.73;0.73;;;;;;;-5.26;78.41;97880.91;4937375;29;20138;-87
2022/03/30 02:37:39;;;;;;;0.68;0.68;;;;;;;-5.32;77.58;97887.66;4938262;29;20091;-86
2022/03/30 02:40:07;;;;;;;0.60;0.60;;;;;;;-5.37;76.63;97900.50;4938224;29;20051;-86
2022/03/30 02:42:34;;;;;;;0.60;0.60;;;;;;;-5.37;76.50;97903.13;4950201;29;20019;-87
2022/03/30 02:45:01;;;;;;;0.50;0.50;;;;;;;-5.34;76.38;97908.06;4958755;29;20121;-87
2022/03/30 02:50:16;;;;;;;0.57;0.57;;;;;;;-5.35;76.39;97913.47;4936832;29;20051;-88
2022/03/30 02:52:44;;;;;;;0.50;0.50;;;;;;;-5.47;76.11;97910.38;4935729;29;20051;-87
2022/03/30 02:55:13;;;;;;;0.57;0.57;;;;;;;-5.52;75.79;97918.81;4936222;29;20040;-87
2022/03/30 02:57:42;;;;;;;0.50;0.50;;;;;;;-5.57;75.41;97918.50;4936204;29;20047;-89
2022/03/30 03:00:10;;;;;;;0.60;0.60;;;;;;;-5.58;74.96;97918.66;4935568;29;20095;-87
2022/03/30 03:02:39;;;;;;;0.57;0.57;;;;;;;-5.61;74.33;97929.50;4919319;29;20067;-88
2022/03/30 03:05:08;;;;;;;0.60;0.60;;;;;;;-5.58;74.09;97929.16;4936856;29;20062;-87
2022/03/30 03:07:35;;;;;;;0.57;0.57;;;;;;;-5.61;73.82;97926.88;4936741;29;20507;-87
2022/03/30 03:10:03;;;;;;;0.63;0.63;;;;;;;-5.64;73.93;97935.91;4935082;29;20059;-87
2022/03/30 03:12:30;;;;;;;0.60;0.60;;;;;;;-5.63;73.57;97931.47;4934888;29;20143;-88
2022/03/30 03:14:58;;;;;;;0.60;0.60;;;;;;;-5.59;73.41;97938.88;4935570;29;20064;-87
2022/03/30 03:17:25;;;;;;;0.52;0.52;;;;;;;-5.56;73.56;97938.53;4919666;29;20055;-88
2022/03/30 03:19:52;;;;;;;0.50;0.50;;;;;;;-5.51;73.41;97941.47;4933968;29;20130;-87
2022/03/30 03:22:19;;;;;;;0.60;0.60;;;;;;;-5.52;72.78;97950.34;4935155;29;20055;-87
2022/03/30 03:24:47;;;;;;;0.60;0.60;;;;;;;-5.58;72.72;97951.00;4918707;29;20075;-86
2022/03/30 03:27:14;;;;;;;0.68;0.68;;;;;;;-5.78;72.18;97949.75;4918197;29;20047;-87
2022/03/30 03:29:42;;;;;;;0.60;0.60;;;;;;;-5.99;72.85;97963.44;4934427;29;20087;-88
2022/03/30 03:32:11;;;;;;;0.50;0.50;;;;;;;-6.19;73.17;97955.03;4935871;29;20051;-87
2022/03/30 03:34:40;;;;;;;0.73;0.73;;;;;;;-6.30;73.48;97955.34;4935894;29;20120;-86
2022/03/30 03:37:08;;;;;;;0.70;0.70;;;;;;;-6.39;73.85;97970.28;4934088;29;20077;-87
2022/03/30 03:39:35;;;;;;;0.63;0.63;;;;;;;-6.55;73.85;97956.16;4933450;29;20122;-87
2022/03/30 03:42:03;;;;;;;0.68;0.68;;;;;;;-6.49;73.87;97973.06;4936398;29;20063;-88
2022/03/30 03:44:30;;;;;;;0.77;0.77;;;;;;;-6.51;74.09;97964.53;4939399;29;20143;-89
2022/03/30 03:46:57;;;;;;;0.60;0.60;;;;;;;-6.51;74.05;97979.44;4933697;29;20459;-88
2022/03/30 03:49:25;;;;;;;0.60;0.60;;;;;;;-6.55;74.08;97981.59;4935196;29;20110;-87
2022/03/30 03:51:55;;;;;;;0.88;0.88;;;;;;;-6.55;74.12;97986.84;4934847;29;20119;-87
2022/03/30 03:54:23;;;;;;;0.77;0.77;;;;;;;-6.51;74.33;97993.41;4932787;29;20052;-88
2022/03/30 03:56:50;;;;;;;0.70;0.70;;;;;;;-6.49;74.26;97996.69;4934671;29;20102;-86
2022/03/30 03:59:17;;;;;;;0.70;0.70;;;;;;;-6.47;74.08;97994.72;4934128;29;20056;-87
2022/03/30 04:01:44;;;;;;;0.80;0.80;;;;;;;-6.39;73.67;97999.16;4935730;29;20055;-85
2022/03/30 04:04:11;;;;;;;0.70;0.70;;;;;;;-6.38;73.62;98006.91;4935833;29;20103;-87
2022/03/30 04:06:38;;;;;;;0.80;0.80;;;;;;;-6.34;73.35;98016.06;4936098;29;20052;-88
2022/03/30 04:09:06;;;;;;;0.60;0.60;;;;;;;-6.29;73.03;98015.59;4938560;29;20059;-86
2022/03/30 04:11:33;;;;;;;0.52;0.52;;;;;;;-6.21;72.66;98009.53;4939466;29;20054;-87
2022/03/30 04:14:00;;;;;;;0.75;0.75;;;;;;;-6.08;72.54;98016.94;4939711;29;20171;-86
2022/03/30 04:16:27;;;;;;;0.57;0.57;;;;;;;-5.95;72.23;98012.00;4940380;29;20078;-87
2022/03/30 04:18:54;;;;;;;0.70;0.70;;;;;;;-5.87;71.96;98017.25;4957078;28;20056;-85
2022/03/30 04:21:24;;;;;;;0.70;0.70;;;;;;;-5.68;71.79;98016.91;4936316;28;20146;-87
2022/03/30 04:23:54;;;;;;;0.70;0.70;;;;;;;-5.55;71.00;98032.19;4936936;28;20052;-87
2022/03/30 04:26:21;;;;;;;0.68;0.68;;;;;;;-5.40;70.43;98019.19;4956792;28;20055;-87
2022/03/30 04:29:15;;;;;;;0.70;0.70;;;;;;;-5.37;70.30;98018.84;4980485;28;20046;-88
2022/03/30 04:31:46;;;;;;;0.77;0.77;;;;;;;-5.49;70.73;98033.34;4954541;29;20047;-93
2022/03/30 04:34:14;;;;;;;0.65;0.65;;;;;;;-5.57;71.04;98035.97;4970514;28;20053;-84
2022/03/30 04:36:42;;;;;;;0.60;0.60;;;;;;;-5.58;71.25;98039.59;4596781;29;9999749;-88
2022/03/30 04:39:12;;;;;;;0.80;0.80;;;;;;;-5.65;71.46;98034.16;4931632;29;20051;-85
2022/03/30 04:41:40;;;;;;;0.80;0.80;;;;;;;-5.73;71.61;98031.53;4934912;29;20558;-85
2022/03/30 04:44:07;;;;;;;0.80;0.80;;;;;;;-5.78;71.94;98039.09;4955766;28;20199;-86
2022/03/30 04:46:34;;;;;;;0.70;0.70;;;;;;;-5.81;72.27;98045.50;4926072;29;20062;-84
2022/03/30 04:49:07;;;;;;;0.57;0.57;;;;;;;-5.83;72.33;98044.84;4942610;29;20050;-91
2022/03/30 04:51:40;;;;;;;0.75;0.75;;;;;;;-5.81;72.45;98049.94;4950134;29;20047;-88
2022/03/30 04:54:18;;;;;;;0.80;0.80;;;;;;;-5.83;72.42;98046.66;4921922;29;20066;-83
2022/03/30 04:56:47;;;;;;;0.73;0.73;;;;;;;-5.76;71.86;98051.09;4952626;29;20134;-83
2022/03/30 04:59:15;;;;;;;0.60;0.60;;;;;;;-5.74;72.04;98053.56;4950598;29;20069;-85
2022/03/30 05:01:42;;;;;;;0.80;0.80;;;;;;;-5.55;71.44;98060.28;4946821;29;20078;-84
2022/03/30 05:04:12;;;;;;;0.75;0.75;;;;;;;-5.32;70.83;98068.31;4936008;29;20057;-82
2022/03/30 05:06:40;;;;;;;0.50;0.50;;;;;;;-5.36;70.42;98062.56;4943312;28;20055;-84
2022/03/30 05:09:07;;;;;;;0.70;0.70;;;;;;;-5.31;70.42;98062.09;4956050;28;20085;-84
2022/03/30 05:11:34;;;;;;;0.70;0.70;;;;;;;-5.37;69.97;98071.44;4957702;28;20047;-83
2022/03/30 05:14:01;;;;;;;0.70;0.70;;;;;;;-5.24;68.89;98079.66;4974440;28;20058;-85
2022/03/30 05:16:32;;;;;;;0.70;0.70;;;;;;;-5.15;67.97;98077.00;4974838;28;20097;-83
2022/03/30 05:18:59;;;;;;;0.70;0.70;;;;;;;-5.04;66.98;98080.13;4958489;28;20141;-84
2022/03/30 05:21:29;;;;;;;0.70;0.70;;;;;;;-5.06;66.62;98081.28;4974858;28;20043;-84
2022/03/30 05:23:56;;;;;;;0.60;0.60;;;;;;;-5.21;66.92;98098.75;4974443;28;20051;-84
2022/03/30 05:26:24;;;;;;;0.80;0.80;;;;;;;-5.23;67.47;98101.53;4960243;28;20400;-83
2022/03/30 05:28:51;;;;;;;0.85;0.85;;;;;;;-5.08;66.80;98084.06;4951595;28;20516;-81
2022/03/30 05:31:18;;;;;;;0.80;0.80;;;;;;;-4.82;66.14;98089.09;4934522;29;20503;-82
2022/03/30 05:33:48;;;;;;;0.82;0.82;;;;;;;-4.71;65.70;98106.38;4935502;29;20583;-83
2022/03/30 05:36:15;;;;;;;0.80;0.80;;;;;;;-4.67;65.15;98104.19;4935505;28;20075;-82
2022/03/30 05:38:42;;;;;;;0.65;0.65;;;;;;;-4.64;65.29;98109.94;4931972;29;20197;-84
2022/03/30 05:41:16;;;;;;;0.82;0.82;;;;;;;-4.59;64.32;98119.97;4934997;29;20047;-85
2022/03/30 05:43:45;;;;;;;0.70;0.70;;;;;;;-4.53;64.22;98114.03;4934744;29;20059;-83
2022/03/30 05:46:15;;;;;;;0.60;0.60;;;;;;;-4.47;63.96;98118.63;4948362;29;20055;-82
2022/03/30 05:48:43;;;;;;;0.63;0.63;;;;;;;-4.31;63.86;98119.53;4956098;28;20417;-83
2022/03/30 05:51:10;;;;;;;0.70;0.70;;;;;;;-4.42;63.98;98118.91;4941413;28;20051;-85
2022/03/30 05:53:37;;;;;;;0.70;0.70;;;;;;;-4.37;64.21;98118.41;4940029;29;20232;-84
2022/03/30 05:56:04;;;;;;;0.80;0.80;;;;;;;-4.18;63.14;98117.16;4945718;28;20055;-83
2022/03/30 05:58:32;;;;;;;0.77;0.77;;;;;;;-4.04;62.95;98121.72;4955678;28;20058;-84
2022/03/30 06:01:04;;;;;;;0.70;0.70;;;;;;;-4.03;62.40;98120.72;4942822;29;20054;-83
2022/03/30 06:03:37;;;;;;;0.60;0.60;;;;;;;-3.99;61.48;98122.00;4937124;28;20546;-79
2022/03/30 06:06:08;;;;;;;0.60;0.60;;;;;;;-4.03;60.29;98120.72;4958794;28;20051;-83
2022/03/30 06:08:35;;;;;;;0.88;0.88;;;;;;;-3.93;59.93;98126.56;4955807;29;20043;-83
2022/03/30 06:11:02;;;;;;;0.63;0.63;;;;;;;-3.76;59.48;98127.31;4955120;29;20062;-82
2022/03/30 06:13:31;;;;;;;0.50;0.50;;;;;;;-3.82;59.51;98127.19;4955100;29;20166;-82
2022/03/30 06:15:59;;;;;;;0.73;0.73;;;;;;;-3.74;59.33;98127.16;4951128;28;20061;-81
2022/03/30 06:18:26;;;;;;;0.70;0.70;;;;;;;-3.42;58.54;98138.44;4954902;28;20149;-81
2022/03/30 06:20:56;;;;;;;0.70;0.70;;;;;;;-3.38;58.44;98137.13;4942724;28;20050;-82
2022/03/30 06:23:23;;;;;;;0.60;0.60;;;;;;;-3.22;58.07;98144.88;4952684;28;20051;-83
2022/03/30 06:25:51;;;;;;;0.65;0.65;;;;;;;-3.27;56.50;98155.16;4953329;28;20472;-82
2022/03/30 06:28:24;;;;;;;0.77;0.77;;;;;;;-3.16;56.35;98149.47;4955448;28;20055;-83
2022/03/30 06:30:51;;;;;;;0.60;0.60;;;;;;;-2.88;55.55;98148.91;4950444;28;20433;-82
2022/03/30 06:33:19;;;;;;;0.80;0.80;;;;;;;-2.81;54.61;98157.75;4949920;29;20059;-82
2022/03/30 06:35:55;;;;;;;0.80;0.80;;;;;;;-2.86;54.14;98154.81;4949484;28;20158;-82
2022/03/30 06:38:24;;;;;;;0.80;0.80;;;;;;;-2.44;53.57;98150.75;4943875;28;20106;-81
2022/03/30 06:40:51;;;;;;;0.60;0.60;;;;;;;-2.23;52.56;98161.44;4936812;28;20054;-84
2022/03/30 06:43:18;;;;;;;0.60;0.60;;;;;;;-2.42;52.99;98156.69;4940822;29;20060;-81
2022/03/30 06:45:46;;;;;;;0.70;0.70;;;;;;;-2.64;52.97;98163.69;4952356;28;20137;-82
2022/03/30 06:48:15;;;;;;;0.57;0.57;;;;;;;-2.59;52.02;98181.63;4960109;28;20046;-82
2022/03/30 06:50:44;;;;;;;0.68;0.68;;;;;;;-2.78;52.97;98165.31;4954776;28;20083;-83
2022/03/30 06:53:14;;;;;;;0.70;0.70;;;;;;;-2.73;53.27;98176.16;4961991;28;20043;-82
2022/03/30 06:55:41;;;;;;;0.68;0.68;;;;;;;-2.79;53.45;98176.84;4945297;28;20142;-82
2022/03/30 06:58:12;;;;;;;0.90;0.90;;;;;;;-2.73;52.62;98178.78;4942285;28;20066;-82
2022/03/30 07:00:40;;;;;;;0.70;0.70;;;;;;;-2.64;52.19;98185.63;4959875;28;20509;-82
2022/03/30 07:03:08;;;;;;;0.63;0.63;;;;;;;-2.71;51.96;98189.16;4950686;29;20422;-81
2022/03/30 07:05:38;;;;;;;0.50;0.50;;;;;;;-2.88;52.88;98188.50;4932416;28;20130;-82
2022/03/30 07:10:56;;;;;;;0.63;0.63;;;;;;;-2.77;51.77;98196.00;4936599;28;20427;-84
2022/03/30 07:13:23;;;;;;;0.70;0.70;;;;;;;-2.97;51.95;98194.84;4939013;29;20063;-81
2022/03/30 07:15:50;;;;;;;0.80;0.80;;;;;;;-2.71;51.54;98205.84;4929703;29;20458;-82
2022/03/30 07:18:20;;;;;;;0.80;0.80;;;;;;;-2.50;49.98;98213.09;4942952;28;20082;-81
2022/03/30 07:20:47;;;;;;;0.75;0.75;;;;;;;-2.59;49.75;98214.16;4966614;28;20146;-82
2022/03/30 07:23:15;;;;;;;0.80;0.80;;;;;;;-2.48;49.78;98207.59;4959839;28;20498;-85
2022/03/30 07:25:45;;;;;;;0.88;0.88;;;;;;;-2.40;48.94;98218.09;4939086;29;20071;-82
2022/03/30 07:28:15;;;;;;;0.80;0.80;;;;;;;-2.35;49.10;98212.28;4932425;28;20453;-82
2022/03/30 07:30:43;;;;;;;0.77;0.77;;;;;;;-2.24;47.80;98217.91;4944082;28;20396;-82
2022/03/30 07:38:18;;;;;;;0.90;0.90;;;;;;;-2.09;47.23;98195.97;4933453;28;20054;-82
2022/03/30 07:41:44;;;;;;;0.90;0.90;;;;;;;-1.40;46.26;98222.84;4911066;29;20470;-82
2022/03/30 07:44:12;;;;;;;1.02;1.02;;;;;;;-0.95;46.35;98218.19;4907508;29;20056;-82
2022/03/30 07:46:43;;;;;;;1.05;1.05;;;;;;;-0.85;44.99;98232.97;4904121;29;20048;-81
2022/03/30 07:49:10;;;;;;;1.00;1.00;;;;;;;-0.74;44.60;98224.50;4898325;29;20067;-83
2022/03/30 07:51:40;;;;;;;0.95;0.95;;;;;;;-0.50;44.65;98218.78;4908445;29;20079;-83
2022/03/30 07:54:07;;;;;;;0.90;0.90;;;;;;;-0.13;44.12;98219.41;4912512;29;20060;-83
2022/03/30 07:56:34;;;;;;;0.73;0.73;;;;;;;-0.61;44.53;98216.63;4913034;29;20495;-83
2022/03/30 07:59:03;;;;;;;0.70;0.70;;;;;;;-0.95;45.15;98220.84;4913700;29;20512;-82
2022/03/30 08:01:30;;;;;;;0.90;0.90;;;;;;;-1.18;45.39;98230.81;4899904;29;20048;-83
2022/03/30 08:04:00;;;;;;;0.90;0.90;;;;;;;-1.31;45.96;98239.44;4901146;29;20078;-83
2022/03/30 08:06:28;;;;;;;1.00;1.00;;;;;;;-0.81;45.25;98234.19;4907918;29;20060;-83
2022/03/30 08:08:55;;;;;;;1.17;1.17;;;;;;;-0.27;44.20;98231.78;4914295;29;20055;-84
2022/03/30 08:11:22;;;;;;;0.80;0.80;;;;;;;-0.54;44.82;98229.94;4907075;29;20059;-83
2022/03/30 08:13:50;;;;;;;1.10;1.10;;;;;;;-0.31;43.71;98235.00;4906393;29;20088;-82
2022/03/30 08:16:17;;;;;;;0.80;0.80;;;;;;;-0.39;43.33;98232.50;4915403;29;20044;-83
2022/03/30 08:18:44;;;;;;;1.00;1.00;;;;;;;-0.61;44.39;98224.59;4949934;28;20106;-81
2022/03/30 08:23:57;;;;;;;1.02;1.02;;;;;;;0.43;41.42;98243.19;4951525;28;20077;-84
2022/03/30 08:26:24;;;;;;;1.45;1.35;;;;;;;0.89;41.45;98232.91;4951583;28;20066;-82
2022/03/30 08:28:52;;;;;;;1.13;1.13;;;;;;;1.71;41.08;98234.38;4942655;29;20150;-82
2022/03/30 08:31:19;;;;;;;1.35;1.25;;;;;;;2.03;39.60;98246.00;4950138;28;20074;-85
2022/03/30 08:33:47;;;;;;;1.33;1.23;;;;;;;2.67;38.67;98239.03;4941572;28;20494;-82
2022/03/30 08:36:20;;;;;;;1.30;1.20;;;;;;;2.02;39.03;98228.41;4955536;28;20118;-82
2022/03/30 08:38:49;;;;;;;0.90;0.90;;;;;;;2.63;38.39;98227.16;4951645;28;20049;-84
2022/03/30 08:41:20;;;;;;;1.00;1.00;;;;;;;1.39;39.13;98233.38;4950082;29;20542;-82
2022/03/30 08:43:48;;;;;;;0.90;0.90;;;;;;;0.74;40.30;98233.91;4961514;28;20055;-85
2022/03/30 08:46:17;;;;;;;0.82;0.82;;;;;;;-0.06;41.57;98240.69;4928352;29;20055;-83
2022/03/30 08:48:47;;;;;;;0.90;0.90;;;;;;;-0.20;43.34;98237.16;4951922;28;20043;-84
2022/03/30 08:51:15;;;;;;;1.15;1.13;;;;;;;-0.03;43.10;98254.38;4949545;28;20055;-84
2022/03/30 08:53:42;;;;;;;0.75;0.75;;;;;;;-0.36;43.29;98248.84;4947936;28;20054;-84
2022/03/30 08:56:12;;;;;;;0.80;0.80;;;;;;;-0.72;43.43;98248.97;4936415;28;20050;-85
2022/03/30 08:58:43;;;;;;;0.90;0.90;;;;;;;-0.80;44.08;98252.56;4941590;28;20426;-83
2022/03/30 09:01:12;;;;;;;1.08;1.08;;;;;;;-0.37;44.02;98251.69;4953404;28;20126;-83
2022/03/30 09:04:09;;;;;;;1.30;1.20;;;;;;;0.79;42.48;98252.72;4930974;28;20067;-83
2022/03/30 09:06:56;;;;;;;1.40;1.30;;;;;;;1.41;41.44;98245.44;4935239;29;20075;-84
2022/03/30 09:09:41;;;;;;;0.80;0.80;;;;;;;1.28;41.63;98238.28;4919966;29;20071;-85
2022/03/30 09:12:10;;;;;;;1.13;1.13;;;;;;;1.58;40.69;98237.06;4936489;29;20222;-85
2022/03/30 09:14:42;;;;;;;1.40;1.30;;;;;;;2.95;38.64;98241.34;4934800;29;20143;-84
2022/03/30 09:17:13;;;;;;;1.30;1.20;;;;;;;3.39;35.66;98242.31;4936372;29;20139;-85
2022/03/30 09:19:40;;;;;;;0.80;0.80;;;;;;;2.32;38.43;98238.56;4935807;29;20048;-86
2022/03/30 09:22:10;;;;;;;1.05;1.05;;;;;;;2.00;39.48;98249.09;4935234;29;20094;-85
2022/03/30 09:24:39;;;;;;;0.80;0.80;;;;;;;1.71;39.58;98243.19;4934932;29;20050;-85
2022/03/30 09:27:07;;;;;;;0.80;0.80;;;;;;;1.51;39.98;98250.34;4935156;29;20126;-85
2022/03/30 09:29:37;;;;;;;1.17;1.15;;;;;;;2.73;37.74;98248.81;4938189;29;20062;-84
2022/03/30 09:32:25;;;;;;;1.45;1.35;;;;;;;4.17;35.97;98248.97;4936922;29;20051;-87
2022/03/30 09:34:54;;;;;;;1.10;1.10;;;;;;;5.31;33.72;98249.16;4937818;29;20055;-86
2022/03/30 09:37:22;;;;;;;0.80;0.80;;;;;;;3.81;34.75;98241.75;4936618;29;20047;-85
2022/03/30 09:39:52;;;;;;;0.80;0.80;;;;;;;2.60;36.04;98243.56;4935988;29;20044;-87
2022/03/30 09:42:27;;;;;;;1.00;1.00;;;;;;;1.69;36.75;98253.19;4936639;29;20071;-85
2022/03/30 09:44:54;;;;;;;0.70;0.70;;;;;;;1.27;38.25;98251.78;4935223;29;20079;-86
2022/03/30 09:47:23;;;;;;;0.90;0.90;;;;;;;1.06;38.75;98256.25;4936477;29;20415;-85
2022/03/30 09:49:52;;;;;;;0.90;0.90;;;;;;;0.83;39.00;98259.25;4935101;29;20427;-85
2022/03/30 09:52:28;;;;;;;0.70;0.70;;;;;;;0.56;38.53;98257.53;4935062;29;20486;-85
2022/03/30 09:54:59;;;;;;;0.80;0.80;;;;;;;0.65;38.77;98253.69;4919453;29;20418;-86
2022/03/30 09:57:34;;;;;;;1.40;1.30;;;;;;;1.64;38.30;98250.34;4937455;29;20051;-86
2022/03/30 10:00:06;;;;;;;0.73;0.73;;;;;;;1.72;37.63;98259.97;4934351;29;20070;-86
2022/03/30 10:02:36;;;;;;;;;;;;;;;1.15;38.10;98248.91;4936233;29;20047;-86
2022/03/30 10:05:13;;;;;;;1.00;1.00;;;;;;;0.80;38.68;98254.34;4934772;29;19926;-85
2022/03/30 10:07:41;;;;;;;1.30;1.20;;;;;;;2.55;35.88;98243.38;4935839;29;20514;-86
2022/03/30 10:10:11;;;;;;;0.90;0.90;;;;;;;3.25;34.28;98235.41;4934591;29;20075;-85
2022/03/30 10:12:38;;;;;;;0.80;0.80;;;;;;;1.99;34.59;98246.63;4918383;29;20059;-86
2022/03/30 10:15:13;;;;;;;0.80;0.80;;;;;;;0.90;36.43;98250.50;4933705;29;20511;-86
2022/03/30 10:17:40;;;;;;;0.77;0.77;;;;;;;0.45;37.54;98252.78;4934003;29;20526;-85
2022/03/30 10:20:10;;;;;;;0.80;0.80;;;;;;;0.19;38.27;98252.47;4936504;29;20052;-86
2022/03/30 10:22:53;;;;;;;1.25;1.20;;;;;;;0.39;38.06;98252.56;4933636;29;20118;-86
2022/03/30 10:25:25;;;;;;;0.88;0.88;;;;;;;0.88;37.60;98249.88;4935628;29;20083;-86
2022/03/30 10:27:55;;;;;;;0.70;0.70;;;;;;;0.48;36.92;98255.03;4935136;29;20099;-85
2022/03/30 10:30:30;;;;;;;1.00;1.00;;;;;;;-0.02;37.20;98250.72;4934324;29;20055;-86
2022/03/30 10:33:03;;;;;;;0.98;0.98;;;;;;;0.77;35.56;98254.75;4935276;29;20515;-85
2022/03/30 10:35:46;;;;;;;1.60;1.50;;;;;;;2.95;31.60;98251.19;4919418;29;20133;-85
2022/03/30 10:38:15;;;;;;;1.60;1.50;;;;;;;4.24;28.99;98255.06;4919170;29;20054;-85
2022/03/30 10:40:43;;;;;;;1.45;1.35;;;;;;;5.00;28.21;98250.25;4947277;28;20058;-84
2022/03/30 10:43:26;;;;;;;1.33;1.23;;;;;;;4.72;27.87;98245.47;4974459;28;20137;-87
2022/03/30 10:46:02;;;;;;;1.50;1.40;;;;;;;5.85;26.37;98252.66;4943670;28;20509;-83
2022/03/30 10:48:29;;;;;;;1.50;1.40;;;;;;;6.10;25.79;98246.25;4942175;29;20051;-85
2022/03/30 10:51:14;;;;;;;1.50;1.40;;;;;;;6.93;25.89;98245.03;4945824;28;20071;-84
2022/03/30 10:53:52;;;;;;;1.10;1.10;;;;;;;5.54;26.06;98250.28;4952471;28;20044;-86
2022/03/30 10:56:24;;;;;;;1.50;1.40;;;;;;;6.68;25.65;98244.53;4951252;29;20138;-84
2022/03/30 10:58:53;;;;;;;1.13;1.10;;;;;;;5.24;27.08;98250.31;4956425;29;20524;-84
2022/03/30 11:01:25;;;;;;;1.60;1.50;;;;;;;6.00;26.31;98256.75;4949260;28;20059;-85
2022/03/30 11:04:16;;;;;;;1.40;1.30;;;;;;;6.53;25.74;98254.94;4935878;29;20503;-85
2022/03/30 11:07:02;;;;;;;1.50;1.40;;;;;;;7.23;24.99;98249.31;4941034;28;20067;-84
2022/03/30 11:09:35;;;;;;;0.90;0.90;;;;;;;6.16;26.57;98244.53;4598459;29;10000579;-87
2022/03/30 11:12:12;;;;;;;1.35;1.25;;;;;;;5.75;26.00;98243.56;4967321;29;20536;-85
2022/03/30 11:14:43;;;;;;;1.00;1.00;;;;;;;6.14;25.80;98246.63;4937018;29;20062;-86
2022/03/30 11:17:12;;;;;;;1.40;1.30;;;;;;;6.87;25.50;98251.34;4948289;28;20558;-86
2022/03/30 11:19:48;;;;;;;1.40;1.30;;;;;;;7.03;23.72;98254.31;4941993;29;20394;-86
2022/03/30 11:22:33;;;;;;;1.48;1.38;;;;;;;7.76;23.99;98272.25;4953077;29;20619;-87
2022/03/30 11:25:10;;;;;;;1.50;1.40;;;;;;;8.59;23.28;98255.47;4956130;28;20247;-83
2022/03/30 11:27:38;;;;;;;1.50;1.40;;;;;;;9.35;22.89;98255.50;4941017;28;20165;-86
2022/03/30 11:30:16;;;;;;;1.40;1.30;;;;;;;8.99;22.93;98248.91;4972628;28;20087;-85
2022/03/30 11:32:54;;;;;;;1.50;1.40;;;;;;;8.10;22.57;98247.22;4968971;28;20167;-83
2022/03/30 11:35:29;;;;;;;1.40;1.30;;;;;;;8.81;22.78;98252.75;4951468;28;20525;-84
2022/03/30 11:38:06;;;;;;;1.40;1.30;;;;;;;9.17;21.75;98239.72;4940755;29;20052;-85
2022/03/30 11:40:44;;;;;;;1.33;1.23;;;;;;;9.09;21.67;98257.94;4938645;29;20044;-84
2022/03/30 11:43:12;;;;;;;1.30;1.20;;;;;;;9.51;21.65;98249.16;4924473;29;20051;-85
2022/03/30 11:46:03;;;;;;;1.40;1.30;;;;;;;10.20;21.37;98252.91;4936342;29;20062;-85
2022/03/30 11:48:36;;;;;;;1.40;1.30;;;;;;;10.27;20.90;98250.81;4938986;28;20098;-85
2022/03/30 11:51:05;;;;;;;1.40;1.30;;;;;;;10.63;20.89;98262.66;4949049;28;20055;-86
2022/03/30 11:53:35;;;;;;;1.40;1.30;;;;;;;10.80;20.78;98245.44;4950874;29;20574;-86
2022/03/30 11:56:08;;;;;;;1.30;1.20;;;;;;;9.67;21.06;98252.84;4939414;29;20503;-85
2022/03/30 11:58:54;;;;;;;1.00;1.00;;;;;;;9.45;21.17;98244.00;4958832;28;20048;-84
2022/03/30 12:01:21;;;;;;;1.38;1.27;;;;;;;8.51;22.23;98259.41;4962026;28;20112;-82
2022/03/30 12:03:54;;;;;;;0.60;0.60;;;;;;;8.35;21.57;98249.47;4952990;28;20422;-84
2022/03/30 12:06:21;;;;;;;0.90;0.90;;;;;;;6.40;23.87;98240.75;4938531;29;20051;-84